sensor_id;sensor_type;location;lat;lon;timestamp;P1;durP1;ratioP1;P2;durP2;ratioP2
12554;SDS011;6343;50.868;4.700;2023-02-22T00:00:15;49.93;;;17.37;;
12554;SDS011;6343;50.868;4.700;2023-02-22T00:02:46;33.37;;;16.87;;
12554;SDS011;6343;50.868;4.700;2023-02-22T00:05:13;36.83;;;17.13;;
12554;SDS011;6343;50.868;4.700;2023-02-22T00:07:41;38.00;;;16.60;;
12554;SDS011;6343;50.868;4.700;2023-02-22T00:10:09;37.00;;;17.43;;
12554;SDS011;6343;50.868;4.700;2023-02-22T00:12:38;41.53;;;16.83;;
12554;SDS011;6343;50.868;4.700;2023-02-22T00:15:04;78.30;;;17.80;;
12554;SDS011;6343;50.868;4.700;2023-02-22T00:17:31;42.50;;;18.47;;
12554;SDS011;6343;50.868;4.700;2023-02-22T00:19:58;57.57;;;17.63;;
12554;SDS011;6343;50.868;4.700;2023-02-22T00:22:24;50.87;;;18.83;;
12554;SDS011;6343;50.868;4.700;2023-02-22T00:24:50;32.33;;;16.20;;
12554;SDS011;6343;50.868;4.700;2023-02-22T00:27:16;43.30;;;17.20;;
12554;SDS011;6343;50.868;4.700;2023-02-22T00:29:45;53.17;;;18.57;;
12554;SDS011;6343;50.868;4.700;2023-02-22T00:32:12;51.40;;;16.53;;
12554;SDS011;6343;50.868;4.700;2023-02-22T00:34:39;23.73;;;13.90;;
12554;SDS011;6343;50.868;4.700;2023-02-22T00:37:05;24.10;;;15.03;;
12554;SDS011;6343;50.868;4.700;2023-02-22T00:39:31;28.70;;;15.57;;
12554;SDS011;6343;50.868;4.700;2023-02-22T00:41:57;24.00;;;13.70;;
12554;SDS011;6343;50.868;4.700;2023-02-22T00:44:23;28.43;;;14.20;;
12554;SDS011;6343;50.868;4.700;2023-02-22T00:46:49;27.80;;;14.70;;
12554;SDS011;6343;50.868;4.700;2023-02-22T00:49:15;39.53;;;15.87;;
12554;SDS011;6343;50.868;4.700;2023-02-22T00:51:41;27.37;;;14.50;;
12554;SDS011;6343;50.868;4.700;2023-02-22T00:54:08;23.07;;;13.87;;
12554;SDS011;6343;50.868;4.700;2023-02-22T00:56:35;44.87;;;13.47;;
12554;SDS011;6343;50.868;4.700;2023-02-22T00:59:04;30.23;;;12.57;;
12554;SDS011;6343;50.868;4.700;2023-02-22T01:01:30;66.50;;;16.07;;
12554;SDS011;6343;50.868;4.700;2023-02-22T01:03:56;24.13;;;13.70;;
12554;SDS011;6343;50.868;4.700;2023-02-22T01:06:23;25.03;;;13.40;;
12554;SDS011;6343;50.868;4.700;2023-02-22T01:08:49;33.00;;;13.83;;
12554;SDS011;6343;50.868;4.700;2023-02-22T01:11:15;28.70;;;11.97;;
12554;SDS011;6343;50.868;4.700;2023-02-22T01:13:41;46.50;;;14.07;;
12554;SDS011;6343;50.868;4.700;2023-02-22T01:16:09;39.50;;;14.00;;
12554;SDS011;6343;50.868;4.700;2023-02-22T01:18:35;20.97;;;12.77;;
12554;SDS011;6343;50.868;4.700;2023-02-22T01:21:02;22.67;;;11.93;;
12554;SDS011;6343;50.868;4.700;2023-02-22T01:23:29;21.83;;;11.13;;
12554;SDS011;6343;50.868;4.700;2023-02-22T01:25:55;26.00;;;12.53;;
12554;SDS011;6343;50.868;4.700;2023-02-22T01:28:21;31.77;;;11.70;;
12554;SDS011;6343;50.868;4.700;2023-02-22T01:30:48;29.67;;;11.93;;
12554;SDS011;6343;50.868;4.700;2023-02-22T01:33:14;22.77;;;12.43;;
12554;SDS011;6343;50.868;4.700;2023-02-22T01:35:41;23.80;;;12.03;;
12554;SDS011;6343;50.868;4.700;2023-02-22T01:38:07;31.60;;;13.30;;
12554;SDS011;6343;50.868;4.700;2023-02-22T01:40:35;20.83;;;12.17;;
12554;SDS011;6343;50.868;4.700;2023-02-22T01:43:14;31.40;;;12.90;;
12554;SDS011;6343;50.868;4.700;2023-02-22T01:45:42;25.17;;;12.23;;
12554;SDS011;6343;50.868;4.700;2023-02-22T01:48:13;33.00;;;13.00;;
12554;SDS011;6343;50.868;4.700;2023-02-22T01:50:44;23.80;;;12.33;;
12554;SDS011;6343;50.868;4.700;2023-02-22T01:53:12;25.37;;;10.83;;
12554;SDS011;6343;50.868;4.700;2023-02-22T01:55:39;23.77;;;11.40;;
12554;SDS011;6343;50.868;4.700;2023-02-22T01:58:05;36.73;;;11.17;;
12554;SDS011;6343;50.868;4.700;2023-02-22T02:00:33;34.50;;;12.33;;
12554;SDS011;6343;50.868;4.700;2023-02-22T02:03:10;22.37;;;12.00;;
12554;SDS011;6343;50.868;4.700;2023-02-22T02:05:38;18.20;;;11.93;;
12554;SDS011;6343;50.868;4.700;2023-02-22T02:10:50;18.60;;;11.03;;
12554;SDS011;6343;50.868;4.700;2023-02-22T02:13:18;24.00;;;11.77;;
12554;SDS011;6343;50.868;4.700;2023-02-22T02:15:44;25.00;;;12.37;;
12554;SDS011;6343;50.868;4.700;2023-02-22T02:18:14;17.77;;;11.00;;
12554;SDS011;6343;50.868;4.700;2023-02-22T02:41:32;18.20;;;10.00;;
12554;SDS011;6343;50.868;4.700;2023-02-22T02:44:01;17.90;;;9.83;;
12554;SDS011;6343;50.868;4.700;2023-02-22T02:48:57;17.70;;;9.77;;
12554;SDS011;6343;50.868;4.700;2023-02-22T02:51:26;16.80;;;10.73;;
12554;SDS011;6343;50.868;4.700;2023-02-22T02:53:53;20.53;;;10.50;;
12554;SDS011;6343;50.868;4.700;2023-02-22T02:56:20;20.67;;;11.13;;
12554;SDS011;6343;50.868;4.700;2023-02-22T02:58:51;18.57;;;10.00;;
12554;SDS011;6343;50.868;4.700;2023-02-22T03:09:09;15.73;;;9.93;;
12554;SDS011;6343;50.868;4.700;2023-02-22T03:14:11;20.43;;;10.70;;
12554;SDS011;6343;50.868;4.700;2023-02-22T03:16:46;12.93;;;9.37;;
12554;SDS011;6343;50.868;4.700;2023-02-22T03:27:18;14.90;;;10.53;;
12554;SDS011;6343;50.868;4.700;2023-02-22T03:29:49;26.57;;;10.67;;
12554;SDS011;6343;50.868;4.700;2023-02-22T03:32:19;21.23;;;10.83;;
12554;SDS011;6343;50.868;4.700;2023-02-22T03:35:07;18.37;;;10.80;;
12554;SDS011;6343;50.868;4.700;2023-02-22T03:37:34;15.53;;;9.93;;
12554;SDS011;6343;50.868;4.700;2023-02-22T03:40:02;19.33;;;11.80;;
12554;SDS011;6343;50.868;4.700;2023-02-22T03:42:38;14.17;;;9.97;;
12554;SDS011;6343;50.868;4.700;2023-02-22T03:45:05;18.77;;;10.00;;
12554;SDS011;6343;50.868;4.700;2023-02-22T03:47:44;19.00;;;11.33;;
12554;SDS011;6343;50.868;4.700;2023-02-22T03:50:12;12.93;;;9.20;;
12554;SDS011;6343;50.868;4.700;2023-02-22T03:52:40;14.10;;;9.43;;
12554;SDS011;6343;50.868;4.700;2023-02-22T03:55:07;26.47;;;9.23;;
12554;SDS011;6343;50.868;4.700;2023-02-22T03:57:36;12.50;;;8.57;;
12554;SDS011;6343;50.868;4.700;2023-02-22T04:00:04;19.73;;;8.30;;
12554;SDS011;6343;50.868;4.700;2023-02-22T04:02:33;10.17;;;7.83;;
12554;SDS011;6343;50.868;4.700;2023-02-22T04:04:59;15.30;;;8.97;;
12554;SDS011;6343;50.868;4.700;2023-02-22T04:07:25;11.23;;;8.30;;
12554;SDS011;6343;50.868;4.700;2023-02-22T04:09:51;12.47;;;8.47;;
12554;SDS011;6343;50.868;4.700;2023-02-22T04:12:17;12.53;;;8.63;;
12554;SDS011;6343;50.868;4.700;2023-02-22T04:14:43;18.27;;;9.00;;
12554;SDS011;6343;50.868;4.700;2023-02-22T04:17:10;16.07;;;8.43;;
12554;SDS011;6343;50.868;4.700;2023-02-22T04:19:36;15.10;;;9.33;;
12554;SDS011;6343;50.868;4.700;2023-02-22T04:22:02;12.30;;;8.50;;
12554;SDS011;6343;50.868;4.700;2023-02-22T04:24:28;11.97;;;7.70;;
12554;SDS011;6343;50.868;4.700;2023-02-22T04:26:54;22.83;;;8.73;;
12554;SDS011;6343;50.868;4.700;2023-02-22T04:29:20;11.97;;;7.87;;
12554;SDS011;6343;50.868;4.700;2023-02-22T04:31:46;10.93;;;7.43;;
12554;SDS011;6343;50.868;4.700;2023-02-22T04:34:12;13.13;;;8.37;;
12554;SDS011;6343;50.868;4.700;2023-02-22T04:36:38;11.73;;;8.07;;
12554;SDS011;6343;50.868;4.700;2023-02-22T04:39:06;13.87;;;8.00;;
12554;SDS011;6343;50.868;4.700;2023-02-22T04:41:32;14.07;;;7.50;;
12554;SDS011;6343;50.868;4.700;2023-02-22T04:43:58;15.47;;;7.30;;
12554;SDS011;6343;50.868;4.700;2023-02-22T04:46:24;9.70;;;6.73;;
12554;SDS011;6343;50.868;4.700;2023-02-22T04:48:50;12.13;;;7.87;;
12554;SDS011;6343;50.868;4.700;2023-02-22T04:51:16;10.13;;;7.00;;
12554;SDS011;6343;50.868;4.700;2023-02-22T04:53:44;13.93;;;8.30;;
12554;SDS011;6343;50.868;4.700;2023-02-22T04:56:10;9.93;;;7.10;;
12554;SDS011;6343;50.868;4.700;2023-02-22T04:58:36;10.77;;;6.77;;
12554;SDS011;6343;50.868;4.700;2023-02-22T05:01:02;8.37;;;6.50;;
12554;SDS011;6343;50.868;4.700;2023-02-22T05:03:28;11.43;;;6.67;;
12554;SDS011;6343;50.868;4.700;2023-02-22T05:05:55;8.13;;;6.30;;
12554;SDS011;6343;50.868;4.700;2023-02-22T05:08:21;7.53;;;6.67;;
12554;SDS011;6343;50.868;4.700;2023-02-22T05:10:47;7.97;;;6.47;;
12554;SDS011;6343;50.868;4.700;2023-02-22T05:13:14;8.33;;;6.30;;
12554;SDS011;6343;50.868;4.700;2023-02-22T05:15:40;7.27;;;6.00;;
12554;SDS011;6343;50.868;4.700;2023-02-22T05:18:06;9.83;;;7.10;;
12554;SDS011;6343;50.868;4.700;2023-02-22T05:20:33;7.73;;;6.07;;
12554;SDS011;6343;50.868;4.700;2023-02-22T05:23:00;9.80;;;7.10;;
12554;SDS011;6343;50.868;4.700;2023-02-22T05:25:26;9.07;;;6.63;;
12554;SDS011;6343;50.868;4.700;2023-02-22T05:27:53;8.20;;;5.90;;
12554;SDS011;6343;50.868;4.700;2023-02-22T05:30:24;8.63;;;6.73;;
12554;SDS011;6343;50.868;4.700;2023-02-22T05:32:51;9.30;;;6.77;;
12554;SDS011;6343;50.868;4.700;2023-02-22T05:35:18;8.70;;;6.17;;
12554;SDS011;6343;50.868;4.700;2023-02-22T05:37:44;7.27;;;5.67;;
12554;SDS011;6343;50.868;4.700;2023-02-22T05:40:10;8.63;;;6.23;;
12554;SDS011;6343;50.868;4.700;2023-02-22T05:42:36;9.30;;;6.03;;
12554;SDS011;6343;50.868;4.700;2023-02-22T05:45:02;8.37;;;5.93;;
12554;SDS011;6343;50.868;4.700;2023-02-22T05:47:28;7.67;;;6.50;;
12554;SDS011;6343;50.868;4.700;2023-02-22T05:49:55;8.90;;;6.33;;
12554;SDS011;6343;50.868;4.700;2023-02-22T05:52:21;8.93;;;6.03;;
12554;SDS011;6343;50.868;4.700;2023-02-22T05:54:47;8.87;;;6.17;;
12554;SDS011;6343;50.868;4.700;2023-02-22T05:57:13;8.30;;;6.37;;
12554;SDS011;6343;50.868;4.700;2023-02-22T05:59:39;8.20;;;6.53;;
12554;SDS011;6343;50.868;4.700;2023-02-22T06:02:05;8.97;;;6.87;;
12554;SDS011;6343;50.868;4.700;2023-02-22T06:04:32;8.30;;;6.10;;
12554;SDS011;6343;50.868;4.700;2023-02-22T06:06:58;8.50;;;6.77;;
12554;SDS011;6343;50.868;4.700;2023-02-22T06:09:24;9.53;;;7.13;;
12554;SDS011;6343;50.868;4.700;2023-02-22T06:11:50;8.87;;;6.33;;
12554;SDS011;6343;50.868;4.700;2023-02-22T06:14:16;14.67;;;7.30;;
12554;SDS011;6343;50.868;4.700;2023-02-22T06:16:42;14.40;;;6.93;;
12554;SDS011;6343;50.868;4.700;2023-02-22T06:19:08;8.17;;;6.33;;
12554;SDS011;6343;50.868;4.700;2023-02-22T06:21:35;8.00;;;6.17;;
12554;SDS011;6343;50.868;4.700;2023-02-22T06:24:01;8.93;;;6.93;;
12554;SDS011;6343;50.868;4.700;2023-02-22T06:26:28;9.37;;;7.00;;
12554;SDS011;6343;50.868;4.700;2023-02-22T06:28:54;8.83;;;6.90;;
12554;SDS011;6343;50.868;4.700;2023-02-22T06:31:20;12.07;;;6.83;;
12554;SDS011;6343;50.868;4.700;2023-02-22T06:33:46;7.40;;;6.60;;
12554;SDS011;6343;50.868;4.700;2023-02-22T06:36:12;8.80;;;6.63;;
12554;SDS011;6343;50.868;4.700;2023-02-22T06:38:38;9.20;;;7.20;;
12554;SDS011;6343;50.868;4.700;2023-02-22T06:41:05;8.27;;;6.53;;
12554;SDS011;6343;50.868;4.700;2023-02-22T06:43:31;10.17;;;7.13;;
12554;SDS011;6343;50.868;4.700;2023-02-22T06:45:57;10.40;;;6.60;;
12554;SDS011;6343;50.868;4.700;2023-02-22T06:48:23;10.33;;;6.67;;
12554;SDS011;6343;50.868;4.700;2023-02-22T06:50:49;9.43;;;7.10;;
12554;SDS011;6343;50.868;4.700;2023-02-22T06:53:15;11.03;;;6.57;;
12554;SDS011;6343;50.868;4.700;2023-02-22T06:55:41;12.13;;;7.63;;
12554;SDS011;6343;50.868;4.700;2023-02-22T06:58:07;10.33;;;6.67;;
12554;SDS011;6343;50.868;4.700;2023-02-22T07:00:33;9.80;;;7.33;;
12554;SDS011;6343;50.868;4.700;2023-02-22T07:02:59;8.27;;;6.67;;
12554;SDS011;6343;50.868;4.700;2023-02-22T07:05:26;10.07;;;7.07;;
12554;SDS011;6343;50.868;4.700;2023-02-22T07:07:53;11.03;;;7.03;;
12554;SDS011;6343;50.868;4.700;2023-02-22T07:10:24;10.90;;;7.13;;
12554;SDS011;6343;50.868;4.700;2023-02-22T07:12:50;9.23;;;6.53;;
12554;SDS011;6343;50.868;4.700;2023-02-22T07:15:17;9.03;;;6.43;;
12554;SDS011;6343;50.868;4.700;2023-02-22T07:17:43;8.40;;;6.53;;
12554;SDS011;6343;50.868;4.700;2023-02-22T07:20:09;11.00;;;7.33;;
12554;SDS011;6343;50.868;4.700;2023-02-22T07:22:36;9.83;;;6.90;;
12554;SDS011;6343;50.868;4.700;2023-02-22T07:25:04;11.40;;;7.30;;
12554;SDS011;6343;50.868;4.700;2023-02-22T07:27:30;8.87;;;6.97;;
12554;SDS011;6343;50.868;4.700;2023-02-22T07:29:56;13.23;;;7.13;;
12554;SDS011;6343;50.868;4.700;2023-02-22T07:32:22;10.57;;;7.30;;
12554;SDS011;6343;50.868;4.700;2023-02-22T07:34:49;11.47;;;7.87;;
12554;SDS011;6343;50.868;4.700;2023-02-22T07:37:15;11.03;;;7.17;;
12554;SDS011;6343;50.868;4.700;2023-02-22T07:39:41;12.43;;;7.00;;
12554;SDS011;6343;50.868;4.700;2023-02-22T07:42:08;13.63;;;7.50;;
12554;SDS011;6343;50.868;4.700;2023-02-22T07:44:34;15.90;;;7.77;;
12554;SDS011;6343;50.868;4.700;2023-02-22T07:47:01;9.43;;;6.50;;
12554;SDS011;6343;50.868;4.700;2023-02-22T07:49:27;10.43;;;6.70;;
12554;SDS011;6343;50.868;4.700;2023-02-22T07:51:53;12.63;;;6.97;;
12554;SDS011;6343;50.868;4.700;2023-02-22T07:54:19;9.97;;;7.17;;
12554;SDS011;6343;50.868;4.700;2023-02-22T07:56:46;9.90;;;6.73;;
12554;SDS011;6343;50.868;4.700;2023-02-22T07:59:13;10.13;;;6.63;;
12554;SDS011;6343;50.868;4.700;2023-02-22T08:01:39;15.00;;;6.40;;
12554;SDS011;6343;50.868;4.700;2023-02-22T08:04:05;9.57;;;6.00;;
12554;SDS011;6343;50.868;4.700;2023-02-22T08:06:31;10.80;;;7.30;;
12554;SDS011;6343;50.868;4.700;2023-02-22T08:08:57;9.03;;;6.37;;
12554;SDS011;6343;50.868;4.700;2023-02-22T08:11:24;12.03;;;7.43;;
12554;SDS011;6343;50.868;4.700;2023-02-22T08:13:50;8.80;;;6.67;;
12554;SDS011;6343;50.868;4.700;2023-02-22T08:16:16;9.37;;;6.70;;
12554;SDS011;6343;50.868;4.700;2023-02-22T08:18:42;10.47;;;7.03;;
12554;SDS011;6343;50.868;4.700;2023-02-22T08:21:08;13.00;;;7.30;;
12554;SDS011;6343;50.868;4.700;2023-02-22T08:23:34;8.83;;;6.23;;
12554;SDS011;6343;50.868;4.700;2023-02-22T08:26:07;13.57;;;7.33;;
12554;SDS011;6343;50.868;4.700;2023-02-22T08:28:34;9.60;;;6.70;;
12554;SDS011;6343;50.868;4.700;2023-02-22T08:31:00;10.10;;;7.70;;
12554;SDS011;6343;50.868;4.700;2023-02-22T08:33:26;10.63;;;7.03;;
12554;SDS011;6343;50.868;4.700;2023-02-22T08:35:52;12.37;;;6.97;;
12554;SDS011;6343;50.868;4.700;2023-02-22T08:40:48;11.87;;;7.43;;
12554;SDS011;6343;50.868;4.700;2023-02-22T08:43:14;17.53;;;7.23;;
12554;SDS011;6343;50.868;4.700;2023-02-22T08:45:40;11.03;;;6.93;;
12554;SDS011;6343;50.868;4.700;2023-02-22T08:48:07;15.23;;;7.67;;
12554;SDS011;6343;50.868;4.700;2023-02-22T08:50:33;14.57;;;7.60;;
12554;SDS011;6343;50.868;4.700;2023-02-22T08:53:01;10.80;;;7.93;;
12554;SDS011;6343;50.868;4.700;2023-02-22T08:55:29;22.00;;;8.20;;
12554;SDS011;6343;50.868;4.700;2023-02-22T08:57:56;12.13;;;7.37;;
12554;SDS011;6343;50.868;4.700;2023-02-22T09:00:23;14.53;;;7.47;;
12554;SDS011;6343;50.868;4.700;2023-02-22T09:02:49;17.57;;;7.57;;
12554;SDS011;6343;50.868;4.700;2023-02-22T09:05:16;16.83;;;7.97;;
12554;SDS011;6343;50.868;4.700;2023-02-22T09:07:42;14.63;;;7.63;;
12554;SDS011;6343;50.868;4.700;2023-02-22T09:10:20;13.10;;;7.27;;
12554;SDS011;6343;50.868;4.700;2023-02-22T09:12:48;15.80;;;8.00;;
12554;SDS011;6343;50.868;4.700;2023-02-22T09:15:15;17.53;;;8.00;;
12554;SDS011;6343;50.868;4.700;2023-02-22T09:17:41;11.60;;;8.20;;
12554;SDS011;6343;50.868;4.700;2023-02-22T09:20:08;13.90;;;7.13;;
12554;SDS011;6343;50.868;4.700;2023-02-22T09:22:35;10.13;;;7.17;;
12554;SDS011;6343;50.868;4.700;2023-02-22T09:25:02;18.27;;;8.07;;
12554;SDS011;6343;50.868;4.700;2023-02-22T09:27:28;10.70;;;8.10;;
12554;SDS011;6343;50.868;4.700;2023-02-22T09:29:54;10.67;;;7.23;;
12554;SDS011;6343;50.868;4.700;2023-02-22T09:32:21;11.50;;;7.47;;
12554;SDS011;6343;50.868;4.700;2023-02-22T09:34:47;13.60;;;7.97;;
12554;SDS011;6343;50.868;4.700;2023-02-22T09:37:13;14.17;;;8.10;;
12554;SDS011;6343;50.868;4.700;2023-02-22T09:39:39;12.70;;;7.83;;
12554;SDS011;6343;50.868;4.700;2023-02-22T09:44:57;9.80;;;7.40;;
12554;SDS011;6343;50.868;4.700;2023-02-22T09:50:15;10.17;;;7.40;;
12554;SDS011;6343;50.868;4.700;2023-02-22T09:55:37;13.07;;;7.87;;
12554;SDS011;6343;50.868;4.700;2023-02-22T09:58:09;21.23;;;7.87;;
12554;SDS011;6343;50.868;4.700;2023-02-22T10:00:38;37.77;;;9.60;;
12554;SDS011;6343;50.868;4.700;2023-02-22T10:03:23;18.63;;;9.03;;
12554;SDS011;6343;50.868;4.700;2023-02-22T10:06:25;15.47;;;8.50;;
12554;SDS011;6343;50.868;4.700;2023-02-22T10:08:45;16.40;;;10.17;;
12554;SDS011;6343;50.868;4.700;2023-02-22T10:11:27;16.23;;;7.80;;
12554;SDS011;6343;50.868;4.700;2023-02-22T10:14:05;11.50;;;7.80;;
12554;SDS011;6343;50.868;4.700;2023-02-22T10:16:42;13.87;;;7.43;;
12554;SDS011;6343;50.868;4.700;2023-02-22T10:19:15;15.73;;;7.80;;
12554;SDS011;6343;50.868;4.700;2023-02-22T10:27:07;23.17;;;8.57;;
12554;SDS011;6343;50.868;4.700;2023-02-22T10:29:45;12.00;;;8.27;;
12554;SDS011;6343;50.868;4.700;2023-02-22T10:32:14;12.17;;;7.57;;
12554;SDS011;6343;50.868;4.700;2023-02-22T10:34:43;15.50;;;8.13;;
12554;SDS011;6343;50.868;4.700;2023-02-22T10:39:47;12.10;;;8.07;;
12554;SDS011;6343;50.868;4.700;2023-02-22T10:42:16;14.83;;;8.53;;
12554;SDS011;6343;50.868;4.700;2023-02-22T10:44:45;14.83;;;11.20;;
12554;SDS011;6343;50.868;4.700;2023-02-22T10:47:12;17.33;;;9.53;;
12554;SDS011;6343;50.868;4.700;2023-02-22T10:49:43;14.47;;;9.40;;
12554;SDS011;6343;50.868;4.700;2023-02-22T10:52:30;15.47;;;9.33;;
12554;SDS011;6343;50.868;4.700;2023-02-22T10:54:58;13.23;;;8.73;;
12554;SDS011;6343;50.868;4.700;2023-02-22T10:57:29;13.90;;;9.47;;
12554;SDS011;6343;50.868;4.700;2023-02-22T10:59:56;17.70;;;9.50;;
12554;SDS011;6343;50.868;4.700;2023-02-22T11:04:52;17.13;;;9.20;;
12554;SDS011;6343;50.868;4.700;2023-02-22T11:07:29;17.10;;;10.27;;
12554;SDS011;6343;50.868;4.700;2023-02-22T11:09:56;16.17;;;9.97;;
12554;SDS011;6343;50.868;4.700;2023-02-22T11:12:33;14.27;;;9.23;;
12554;SDS011;6343;50.868;4.700;2023-02-22T11:17:46;16.43;;;9.70;;
12554;SDS011;6343;50.868;4.700;2023-02-22T11:22:54;14.07;;;9.33;;
12554;SDS011;6343;50.868;4.700;2023-02-22T11:25:26;17.87;;;10.10;;
12554;SDS011;6343;50.868;4.700;2023-02-22T11:27:53;15.23;;;8.67;;
12554;SDS011;6343;50.868;4.700;2023-02-22T11:30:30;12.10;;;9.17;;
12554;SDS011;6343;50.868;4.700;2023-02-22T11:38:24;17.90;;;9.50;;
12554;SDS011;6343;50.868;4.700;2023-02-22T11:43:35;14.63;;;10.07;;
12554;SDS011;6343;50.868;4.700;2023-02-22T11:46:05;21.83;;;10.43;;
12554;SDS011;6343;50.868;4.700;2023-02-22T11:48:33;15.17;;;9.27;;
12554;SDS011;6343;50.868;4.700;2023-02-22T11:51:18;13.27;;;9.40;;
12554;SDS011;6343;50.868;4.700;2023-02-22T11:53:59;16.20;;;10.27;;
12554;SDS011;6343;50.868;4.700;2023-02-22T11:56:48;18.90;;;10.83;;
12554;SDS011;6343;50.868;4.700;2023-02-22T12:06:49;18.00;;;10.73;;
12554;SDS011;6343;50.868;4.700;2023-02-22T12:14:43;20.70;;;12.47;;
12554;SDS011;6343;50.868;4.700;2023-02-22T12:20:08;21.63;;;13.07;;
12554;SDS011;6343;50.868;4.700;2023-02-22T12:22:35;20.77;;;13.43;;
12554;SDS011;6343;50.868;4.700;2023-02-22T12:27:40;20.97;;;13.43;;
12554;SDS011;6343;50.868;4.700;2023-02-22T12:30:17;22.03;;;13.47;;
12554;SDS011;6343;50.868;4.700;2023-02-22T12:32:45;21.50;;;13.73;;
12554;SDS011;6343;50.868;4.700;2023-02-22T12:35:26;23.03;;;14.50;;
12554;SDS011;6343;50.868;4.700;2023-02-22T12:37:56;19.07;;;12.97;;
12554;SDS011;6343;50.868;4.700;2023-02-22T12:43:13;25.13;;;15.53;;
12554;SDS011;6343;50.868;4.700;2023-02-22T12:45:44;24.30;;;14.90;;
12554;SDS011;6343;50.868;4.700;2023-02-22T12:48:19;25.00;;;14.43;;
12554;SDS011;6343;50.868;4.700;2023-02-22T12:50:46;23.97;;;15.07;;
12554;SDS011;6343;50.868;4.700;2023-02-22T12:53:22;26.70;;;14.27;;
12554;SDS011;6343;50.868;4.700;2023-02-22T12:55:55;22.33;;;15.53;;
12554;SDS011;6343;50.868;4.700;2023-02-22T13:03:25;23.33;;;15.70;;
12554;SDS011;6343;50.868;4.700;2023-02-22T13:08:48;24.80;;;15.47;;
12554;SDS011;6343;50.868;4.700;2023-02-22T13:19:01;22.63;;;15.47;;
12554;SDS011;6343;50.868;4.700;2023-02-22T13:26:46;22.47;;;16.10;;
12554;SDS011;6343;50.868;4.700;2023-02-22T13:32:00;25.17;;;17.67;;
12554;SDS011;6343;50.868;4.700;2023-02-22T13:34:50;24.00;;;16.50;;
12554;SDS011;6343;50.868;4.700;2023-02-22T13:39:56;23.93;;;15.97;;
12554;SDS011;6343;50.868;4.700;2023-02-22T13:45:25;49.20;;;19.13;;
12554;SDS011;6343;50.868;4.700;2023-02-22T13:53:04;24.93;;;15.67;;
12554;SDS011;6343;50.868;4.700;2023-02-22T13:55:33;25.83;;;17.27;;
12554;SDS011;6343;50.868;4.700;2023-02-22T13:58:02;23.10;;;16.50;;
12554;SDS011;6343;50.868;4.700;2023-02-22T14:10:46;29.43;;;18.33;;
12554;SDS011;6343;50.868;4.700;2023-02-22T14:13:13;28.57;;;19.20;;
12554;SDS011;6343;50.868;4.700;2023-02-22T14:18:26;31.57;;;18.73;;
12554;SDS011;6343;50.868;4.700;2023-02-22T14:21:16;25.77;;;18.00;;
12554;SDS011;6343;50.868;4.700;2023-02-22T14:26:28;29.40;;;18.67;;
12554;SDS011;6343;50.868;4.700;2023-02-22T14:28:58;30.73;;;19.03;;
12554;SDS011;6343;50.868;4.700;2023-02-22T14:31:26;29.80;;;19.13;;
12554;SDS011;6343;50.868;4.700;2023-02-22T14:36:40;31.83;;;19.57;;
12554;SDS011;6343;50.868;4.700;2023-02-22T14:39:11;30.20;;;18.10;;
12554;SDS011;6343;50.868;4.700;2023-02-22T14:41:39;34.97;;;20.80;;
12554;SDS011;6343;50.868;4.700;2023-02-22T14:44:06;30.33;;;20.83;;
12554;SDS011;6343;50.868;4.700;2023-02-22T14:46:37;30.70;;;20.90;;
12554;SDS011;6343;50.868;4.700;2023-02-22T14:49:04;33.47;;;21.77;;
12554;SDS011;6343;50.868;4.700;2023-02-22T14:51:40;33.30;;;22.03;;
12554;SDS011;6343;50.868;4.700;2023-02-22T14:57:03;44.13;;;25.70;;
12554;SDS011;6343;50.868;4.700;2023-02-22T15:02:17;43.70;;;26.73;;
12554;SDS011;6343;50.868;4.700;2023-02-22T15:04:54;43.07;;;28.47;;
12554;SDS011;6343;50.868;4.700;2023-02-22T15:07:25;43.57;;;27.90;;
12554;SDS011;6343;50.868;4.700;2023-02-22T15:09:54;42.97;;;28.60;;
12554;SDS011;6343;50.868;4.700;2023-02-22T15:12:30;36.67;;;24.73;;
12554;SDS011;6343;50.868;4.700;2023-02-22T15:15:09;35.97;;;23.53;;
12554;SDS011;6343;50.868;4.700;2023-02-22T15:17:37;35.23;;;23.80;;
12554;SDS011;6343;50.868;4.700;2023-02-22T15:20:05;37.13;;;24.03;;
12554;SDS011;6343;50.868;4.700;2023-02-22T15:22:34;34.47;;;22.20;;
12554;SDS011;6343;50.868;4.700;2023-02-22T15:25:05;31.57;;;22.93;;
12554;SDS011;6343;50.868;4.700;2023-02-22T15:27:35;33.67;;;22.23;;
12554;SDS011;6343;50.868;4.700;2023-02-22T15:30:03;36.23;;;23.70;;
12554;SDS011;6343;50.868;4.700;2023-02-22T15:37:56;34.77;;;22.00;;
12554;SDS011;6343;50.868;4.700;2023-02-22T15:40:22;32.70;;;23.47;;
12554;SDS011;6343;50.868;4.700;2023-02-22T15:42:52;32.30;;;22.70;;
12554;SDS011;6343;50.868;4.700;2023-02-22T15:45:22;32.93;;;22.93;;
12554;SDS011;6343;50.868;4.700;2023-02-22T15:47:49;35.97;;;24.20;;
12554;SDS011;6343;50.868;4.700;2023-02-22T15:52:54;35.37;;;23.50;;
12554;SDS011;6343;50.868;4.700;2023-02-22T15:57:55;37.40;;;23.33;;
12554;SDS011;6343;50.868;4.700;2023-02-22T16:00:26;35.10;;;24.00;;
12554;SDS011;6343;50.868;4.700;2023-02-22T16:03:00;34.13;;;22.97;;
12554;SDS011;6343;50.868;4.700;2023-02-22T16:05:30;35.97;;;24.53;;
12554;SDS011;6343;50.868;4.700;2023-02-22T16:07:57;34.50;;;24.97;;
12554;SDS011;6343;50.868;4.700;2023-02-22T16:10:25;35.13;;;26.03;;
12554;SDS011;6343;50.868;4.700;2023-02-22T16:13:02;41.97;;;27.07;;
12554;SDS011;6343;50.868;4.700;2023-02-22T16:15:30;39.40;;;25.40;;
12554;SDS011;6343;50.868;4.700;2023-02-22T16:17:56;41.40;;;27.10;;
12554;SDS011;6343;50.868;4.700;2023-02-22T16:22:51;35.50;;;24.90;;
12554;SDS011;6343;50.868;4.700;2023-02-22T16:25:23;38.00;;;25.73;;
12554;SDS011;6343;50.868;4.700;2023-02-22T16:27:59;47.40;;;27.97;;
12554;SDS011;6343;50.868;4.700;2023-02-22T16:30:39;47.90;;;27.30;;
12554;SDS011;6343;50.868;4.700;2023-02-22T16:33:06;38.50;;;27.33;;
12554;SDS011;6343;50.868;4.700;2023-02-22T16:35:37;45.63;;;28.33;;
12554;SDS011;6343;50.868;4.700;2023-02-22T16:38:07;41.77;;;27.40;;
12554;SDS011;6343;50.868;4.700;2023-02-22T16:40:50;43.70;;;27.73;;
12554;SDS011;6343;50.868;4.700;2023-02-22T16:43:20;43.73;;;27.10;;
12554;SDS011;6343;50.868;4.700;2023-02-22T16:45:47;40.50;;;25.87;;
12554;SDS011;6343;50.868;4.700;2023-02-22T16:48:23;44.37;;;26.63;;
12554;SDS011;6343;50.868;4.700;2023-02-22T16:50:50;42.40;;;25.60;;
12554;SDS011;6343;50.868;4.700;2023-02-22T16:53:17;40.83;;;24.93;;
12554;SDS011;6343;50.868;4.700;2023-02-22T16:55:44;42.37;;;25.57;;
12554;SDS011;6343;50.868;4.700;2023-02-22T16:58:11;42.60;;;25.63;;
12554;SDS011;6343;50.868;4.700;2023-02-22T17:00:41;42.97;;;24.53;;
12554;SDS011;6343;50.868;4.700;2023-02-22T17:03:13;40.57;;;24.83;;
12554;SDS011;6343;50.868;4.700;2023-02-22T17:05:39;37.77;;;25.67;;
12554;SDS011;6343;50.868;4.700;2023-02-22T17:08:06;41.03;;;23.43;;
12554;SDS011;6343;50.868;4.700;2023-02-22T17:10:32;41.80;;;22.27;;
12554;SDS011;6343;50.868;4.700;2023-02-22T17:12:59;43.63;;;24.97;;
12554;SDS011;6343;50.868;4.700;2023-02-22T17:15:26;39.87;;;23.87;;
12554;SDS011;6343;50.868;4.700;2023-02-22T17:17:53;38.13;;;22.47;;
12554;SDS011;6343;50.868;4.700;2023-02-22T17:20:19;37.17;;;22.07;;
12554;SDS011;6343;50.868;4.700;2023-02-22T17:23:03;34.80;;;21.83;;
12554;SDS011;6343;50.868;4.700;2023-02-22T17:25:52;36.60;;;22.20;;
12554;SDS011;6343;50.868;4.700;2023-02-22T17:28:19;33.17;;;20.67;;
12554;SDS011;6343;50.868;4.700;2023-02-22T17:30:46;37.07;;;21.30;;
12554;SDS011;6343;50.868;4.700;2023-02-22T17:33:17;36.93;;;21.30;;
12554;SDS011;6343;50.868;4.700;2023-02-22T17:35:44;37.93;;;21.67;;
12554;SDS011;6343;50.868;4.700;2023-02-22T17:38:11;36.83;;;21.33;;
12554;SDS011;6343;50.868;4.700;2023-02-22T17:40:38;36.00;;;20.87;;
12554;SDS011;6343;50.868;4.700;2023-02-22T17:43:05;34.33;;;21.57;;